Newark, OH

2:51 AM EST on February 27, 2015 (GMT -0500)
Newark Heath | Change Station
CLOSE
Current Station
Airport
Location: Newark Heath,
Elevation: 883 ft
Nearby Weather Stations
Active Advisory: Wind Chill Advisory

Elev 883 ft 40.03 °N, 82.46 °W | Updated 57 minutes ago

Clear
Clear
3 °F
Feels Like -4 °F
N
4
Wind Variable Wind from NW

Today
High -- | Low -- °F
--% Chance of Precip.
Yesterday
High -- | Low -- °F
Precip. -- in
7:06 AM 6:18 PM
Waxing Gibbous, 66% visible
Pressure 30.38 in
Visibility 10.0 miles
Clouds Clear
Windchill -4 °F
Dew Point -1 °F
Humidity 84%
Rainfall 0.00 in
Snow Depth Not available.
UV 0 out of 12
Pollen .50 out of 12
Air Quality Not available.
Flu Activity Not available.
METAR KVTA 270654Z AUTO 31003KT 10SM CLR M16/M18 A3033 RMK AO2 SLP288 T11611183

More Conditions Fewer Conditions

Pressure 30.38 in
Visibility 10.0 miles
Clouds Clear
Windchill -4 °F
Dew Point -1 °F
Humidity 84%
Rainfall 0.00 in
Snow Depth Not available.
UV 0 out of 12
Pollen .50 out of 12
Air Quality Not available.
Flu Activity Not available.
METAR KVTA 270654Z AUTO 31003KT 10SM CLR M16/M18 A3033 RMK AO2 SLP288 T11611183

More Conditions Fewer Conditions

10-Day Weather Forecast

Almanac

Astronomy

Feb. 27, 2015 Rise Set
Actual Time
Civil Twilight
Nautical Twilight
Astronomical Twilight
Moon
Length of Visible Light
Length of Day
Tomorrow will be .
, % of the Moon is Illuminated

Today's Extremes

State Highs State Lows

Community

WunderPhotos

Upload Photos

1,800,649 photos uploaded!

WunderBlogs® & News

Nearby

Air Quality

  Air Quality AQ Index Pollutant
Not available.

Snow Depth

Station Depth Elevation

Earthquake Activity

City Distance Mag. Time & Date
Minimum magnitude displayed is 2.5.

Coastal Water Temperatures

Place Temperature

Nearby Weather Stations

Wind Chill Advisory
Statement as of 8:19 PM EST on February 26, 2015

... Wind Chill Advisory remains in effect until 11 am EST Friday...

* hazard types... cold wind chill readings... as low as 14 below.

* Impacts... the frigid conditions will be dangerous to those
venturing outside. Exposure may cause frostbite.

* Winds... north 5 to 10 mph.

Precautionary/preparedness actions...

A Wind Chill Advisory is issued when wind will combine with cold
temperatures to create dangerously cold conditions for exposed
skin. The wind will make it feel like it is between 10 and
24 degrees below zero for a period of several hours. Those
planning to venture outdoors should use common sense and dress
warmly... making sure that all exposed skin is covered.